Time;durP1;ratioP1;P1;durP2;ratioP2;P2;SDS_P1;SDS_P2;PMS_P1;PMS_P2;Temp;Humidity;BMP_temperature;BMP_pressure;BME280_temperature;BME280_humidity;BME280_pressure;Samples;Min_cycle;Max_cycle;Signal;HPM_P1;HPM_P2
2022/03/03 00:02:13;;;;;;;;;;;;;;;;;;5056961;28;20358;-32
2022/03/03 00:04:38;;;;;;;;;;;;;;;;;;5057700;28;20012;-31
2022/03/03 00:07:05;;;;;;;;;;;;;;;;;;5057929;28;20405;-32
2022/03/03 00:09:31;;;;;;;;;;;;;;;;;;5058200;28;20263;-32
2022/03/03 00:11:57;;;;;;;;;;;;;;;;;;5057749;28;20370;-32
2022/03/03 00:14:23;;;;;;;;;;;;;;;;;;5056859;28;19909;-31
2022/03/03 00:16:48;;;;;;;;;;;;;;;;;;5057660;28;20014;-32
2022/03/03 00:19:15;;;;;;;;;;;;;;;;;;5056741;28;19913;-31
2022/03/03 00:21:41;;;;;;;;;;;;;;;;;;5056745;28;19986;-32
2022/03/03 00:24:07;;;;;;;;;;;;;;;;;;5057448;28;20251;-32
2022/03/03 00:26:33;;;;;;;;;;;;;;;;;;5057534;28;19913;-32
2022/03/03 00:28:59;;;;;;;;;;;;;;;;;;5057492;28;19965;-32
2022/03/03 00:31:25;;;;;;;;;;;;;;;;;;5058033;28;19966;-32
2022/03/03 00:33:51;;;;;;;;;;;;;;;;;;5057302;28;19913;-32
2022/03/03 00:36:16;;;;;;;;;;;;;;;;;;5057281;28;19917;-33
2022/03/03 00:38:43;;;;;;;;;;;;;;;;;;5057575;28;19908;-31
2022/03/03 00:41:08;;;;;;;;;;;;;;;;;;5056281;28;19927;-32
2022/03/03 00:43:35;;;;;;;;;;;;;;;;;;5056111;28;20264;-32
2022/03/03 00:46:00;;;;;;;;;;;;;;;;;;5057158;28;19967;-31
2022/03/03 00:48:27;;;;;;;;;;;;;;;;;;5057073;28;20287;-31
2022/03/03 00:50:52;;;;;;;;;;;;;;;;;;5057616;28;19913;-31
2022/03/03 00:53:19;;;;;;;;;;;;;;;;;;5056986;28;19970;-30
2022/03/03 00:55:45;;;;;;;;;;;;;;;;;;5056002;28;19917;-33
2022/03/03 00:58:11;;;;;;;;;;;;;;;;;;5056793;28;19916;-31
2022/03/03 01:00:37;;;;;;;;;;;;;;;;;;5057200;28;19913;-30
2022/03/03 01:03:03;;;;;;;;;;;;;;;;;;5057005;28;20213;-33
2022/03/03 01:05:29;;;;;;;;;;;;;;;;;;5056594;28;19921;-30
2022/03/03 01:07:55;;;;;;;;;;;;;;;;;;5056710;28;19912;-31
2022/03/03 01:10:21;;;;;;;;;;;;;;;;;;5055775;28;19920;-30
2022/03/03 01:12:47;;;;;;;;;;;;;;;;;;5056593;28;20284;-30
2022/03/03 01:15:13;;;;;;;;;;;;;;;;;;5056610;28;20255;-34
2022/03/03 01:17:39;;;;;;;;;;;;;;;;;;5057129;28;19920;-30
2022/03/03 01:20:05;;;;;;;;;;;;;;;;;;5056518;28;19917;-31
2022/03/03 01:22:31;;;;;;;;;;;;;;;;;;5056683;28;19919;-35
2022/03/03 01:24:57;;;;;;;;;;;;;;;;;;5055484;28;19966;-33
2022/03/03 01:27:23;;;;;;;;;;;;;;;;;;5056911;28;19949;-39
2022/03/03 01:29:49;;;;;;;;;;;;;;;;;;5055664;28;19908;-31
2022/03/03 01:32:15;;;;;;;;;;;;;;;;;;5055228;28;19912;-31
2022/03/03 01:34:41;;;;;;;;;;;;;;;;;;5056275;28;19962;-31
2022/03/03 01:37:07;;;;;;;;;;;;;;;;;;5056153;28;19940;-34
2022/03/03 01:39:33;;;;;;;;;;;;;;;;;;5056173;28;19909;-32
2022/03/03 01:42:01;;;;;;;;;;;;;;;;;;5055949;28;19924;-30
2022/03/03 01:44:27;;;;;;;;;;;;;;;;;;5055955;28;19913;-31
2022/03/03 01:46:53;;;;;;;;;;;;;;;;;;5055032;28;19987;-30
2022/03/03 01:49:19;;;;;;;;;;;;;;;;;;5056041;28;20370;-32
2022/03/03 01:51:45;;;;;;;;;;;;;;;;;;5056143;28;19913;-30
2022/03/03 01:54:11;;;;;;;;;;;;;;;;;;5055818;28;19916;-32
2022/03/03 01:56:38;;;;;;;;;;;;;;;;;;5054850;28;19990;-32
2022/03/03 01:59:04;;;;;;;;;;;;;;;;;;5056097;28;19916;-31
2022/03/03 02:01:31;;;;;;;;;;;;;;;;;;5055716;28;20359;-31
2022/03/03 02:03:57;;;;;;;;;;;;;;;;;;5055472;28;19948;-30
2022/03/03 02:06:23;;;;;;;;;;;;;;;;;;5055705;28;19971;-31
2022/03/03 02:08:49;;;;;;;;;;;;;;;;;;5054347;28;19908;-31
2022/03/03 02:11:15;;;;;;;;;;;;;;;;;;5055799;28;19913;-31
2022/03/03 02:13:41;;;;;;;;;;;;;;;;;;5055763;28;19915;-35
2022/03/03 02:16:08;;;;;;;;;;;;;;;;;;5055466;28;19952;-32
2022/03/03 02:18:34;;;;;;;;;;;;;;;;;;5055783;28;20015;-34
2022/03/03 02:21:01;;;;;;;;;;;;;;;;;;5054487;28;20317;-31
2022/03/03 02:23:27;;;;;;;;;;;;;;;;;;5055368;28;20264;-31
2022/03/03 02:25:53;;;;;;;;;;;;;;;;;;5055922;28;19919;-30
2022/03/03 02:28:19;;;;;;;;;;;;;;;;;;5055277;28;19912;-30
2022/03/03 02:30:45;;;;;;;;;;;;;;;;;;5056111;28;19973;-34
2022/03/03 02:33:11;;;;;;;;;;;;;;;;;;5055201;28;19921;-33
2022/03/03 02:35:37;;;;;;;;;;;;;;;;;;5055176;28;20265;-30
2022/03/03 02:38:04;;;;;;;;;;;;;;;;;;5055450;28;19963;-33
2022/03/03 02:40:30;;;;;;;;;;;;;;;;;;5055157;28;19923;-31
2022/03/03 02:42:56;;;;;;;;;;;;;;;;;;5055585;28;19939;-32
2022/03/03 02:45:22;;;;;;;;;;;;;;;;;;5055037;28;19913;-33
2022/03/03 02:47:48;;;;;;;;;;;;;;;;;;5055334;28;20363;-33
2022/03/03 02:50:14;;;;;;;;;;;;;;;;;;5055321;28;19913;-31
2022/03/03 02:52:40;;;;;;;;;;;;;;;;;;5054935;28;19996;-33
2022/03/03 02:55:06;;;;;;;;;;;;;;;;;;5054965;28;19917;-31
2022/03/03 03:00:16;;;;;;;;;;;;;;;;;;5055326;28;20346;-31
2022/03/03 03:02:42;;;;;;;;;;;;;;;;;;5054929;28;19909;-31
2022/03/03 03:05:08;;;;;;;;;;;;;;;;;;5054709;28;19921;-32
2022/03/03 03:07:34;;;;;;;;;;;;;;;;;;5055409;28;20061;-32
2022/03/03 03:10:00;;;;;;;;;;;;;;;;;;5054840;28;19931;-31
2022/03/03 03:12:26;;;;;;;;;;;;;;;;;;5053843;28;19924;-32
2022/03/03 03:14:52;;;;;;;;;;;;;;;;;;5054874;28;20232;-33
2022/03/03 03:17:18;;;;;;;;;;;;;;;;;;5054755;28;19963;-30
2022/03/03 03:19:44;;;;;;;;;;;;;;;;;;5055313;28;20007;-32
2022/03/03 03:22:10;;;;;;;;;;;;;;;;;;5057725;28;20310;-31
2022/03/03 03:24:36;;;;;;;;;;;;;;;;;;5058951;28;19923;-31
2022/03/03 03:27:02;;;;;;;;;;;;;;;;;;5058644;28;19999;-31
2022/03/03 03:29:28;;;;;;;;;;;;;;;;;;5057709;28;19913;-31
2022/03/03 03:31:54;;;;;;;;;;;;;;;;;;5058746;28;19921;-34
2022/03/03 03:34:20;;;;;;;;;;;;;;;;;;5058538;28;20003;-32
2022/03/03 03:36:46;;;;;;;;;;;;;;;;;;5058498;28;19913;-31
2022/03/03 03:39:12;;;;;;;;;;;;;;;;;;5058721;28;19920;-31
2022/03/03 03:41:38;;;;;;;;;;;;;;;;;;5058337;28;19916;-32
2022/03/03 03:44:04;;;;;;;;;;;;;;;;;;5057243;28;19916;-33
2022/03/03 03:46:30;;;;;;;;;;;;;;;;;;5058267;28;19920;-31
2022/03/03 03:48:56;;;;;;;;;;;;;;;;;;5058558;28;19967;-31
2022/03/03 03:51:22;;;;;;;;;;;;;;;;;;5058767;28;19919;-30
2022/03/03 03:53:48;;;;;;;;;;;;;;;;;;5058112;28;19986;-32
2022/03/03 03:56:14;;;;;;;;;;;;;;;;;;5058159;28;19943;-32
2022/03/03 03:58:40;;;;;;;;;;;;;;;;;;5058363;28;19908;-33
2022/03/03 04:01:06;;;;;;;;;;;;;;;;;;5058003;28;19966;-30
2022/03/03 04:03:32;;;;;;;;;;;;;;;;;;5057882;28;19978;-31
2022/03/03 04:05:58;;;;;;;;;;;;;;;;;;5057867;28;19921;-31
2022/03/03 04:08:24;;;;;;;;;;;;;;;;;;5056950;28;20360;-34
2022/03/03 04:10:50;;;;;;;;;;;;;;;;;;5058422;28;19913;-31
2022/03/03 04:13:16;;;;;;;;;;;;;;;;;;5057749;28;19909;-32
2022/03/03 04:15:42;;;;;;;;;;;;;;;;;;5057687;28;19955;-34
2022/03/03 04:18:10;;;;;;;;;;;;;;;;;;5057701;28;19915;-32
2022/03/03 04:20:36;;;;;;;;;;;;;;;;;;5057613;28;19921;-32
2022/03/03 04:23:02;;;;;;;;;;;;;;;;;;5057540;28;19959;-34
2022/03/03 04:25:28;;;;;;;;;;;;;;;;;;5056562;28;19917;-32
2022/03/03 04:27:54;;;;;;;;;;;;;;;;;;5057517;28;20450;-31
2022/03/03 04:30:20;;;;;;;;;;;;;;;;;;5057248;28;19924;-31
2022/03/03 04:32:46;;;;;;;;;;;;;;;;;;5057343;28;20358;-32
2022/03/03 04:35:12;;;;;;;;;;;;;;;;;;5057439;28;19909;-34
2022/03/03 04:37:38;;;;;;;;;;;;;;;;;;5057263;28;19912;-31
2022/03/03 04:40:04;;;;;;;;;;;;;;;;;;5057284;28;19923;-31
2022/03/03 04:42:30;;;;;;;;;;;;;;;;;;5057203;28;19923;-32
2022/03/03 04:44:56;;;;;;;;;;;;;;;;;;5057099;28;19924;-31
2022/03/03 04:47:22;;;;;;;;;;;;;;;;;;5057128;28;19967;-31
2022/03/03 04:49:48;;;;;;;;;;;;;;;;;;5057055;28;19908;-32
2022/03/03 04:52:14;;;;;;;;;;;;;;;;;;5056002;28;19913;-30
2022/03/03 04:54:40;;;;;;;;;;;;;;;;;;5057223;28;20263;-33
2022/03/03 04:57:06;;;;;;;;;;;;;;;;;;5056994;28;19912;-31
2022/03/03 04:59:32;;;;;;;;;;;;;;;;;;5057105;28;19909;-33
2022/03/03 05:01:58;;;;;;;;;;;;;;;;;;5056655;28;19912;-33
2022/03/03 05:04:24;;;;;;;;;;;;;;;;;;5056427;28;19921;-35
2022/03/03 05:06:50;;;;;;;;;;;;;;;;;;5057346;28;19912;-32
2022/03/03 05:09:16;;;;;;;;;;;;;;;;;;5056777;28;19927;-31
2022/03/03 05:11:42;;;;;;;;;;;;;;;;;;5055624;28;19955;-32
2022/03/03 05:14:08;;;;;;;;;;;;;;;;;;5055558;28;19963;-31
2022/03/03 05:16:34;;;;;;;;;;;;;;;;;;5056462;28;20479;-32
2022/03/03 05:19:00;;;;;;;;;;;;;;;;;;5056548;28;19959;-33
2022/03/03 05:21:26;;;;;;;;;;;;;;;;;;5056572;28;19913;-32
2022/03/03 05:23:53;;;;;;;;;;;;;;;;;;5056600;28;19920;-33
2022/03/03 05:26:19;;;;;;;;;;;;;;;;;;5056657;28;19940;-37
2022/03/03 05:28:45;;;;;;;;;;;;;;;;;;5055356;28;19913;-32
2022/03/03 05:31:11;;;;;;;;;;;;;;;;;;5056290;28;19995;-33
2022/03/03 05:33:37;;;;;;;;;;;;;;;;;;5056159;28;20000;-33
2022/03/03 05:36:03;;;;;;;;;;;;;;;;;;5055277;28;19913;-31
2022/03/03 05:38:29;;;;;;;;;;;;;;;;;;5056607;28;19999;-32
2022/03/03 05:40:55;;;;;;;;;;;;;;;;;;5056336;28;20016;-33
2022/03/03 05:43:21;;;;;;;;;;;;;;;;;;5055482;28;19913;-32
2022/03/03 05:45:47;;;;;;;;;;;;;;;;;;5056758;28;19980;-33
2022/03/03 05:48:13;;;;;;;;;;;;;;;;;;5056213;28;19913;-36
2022/03/03 05:50:39;;;;;;;;;;;;;;;;;;5055738;28;20371;-33
2022/03/03 05:53:05;;;;;;;;;;;;;;;;;;5054795;28;19943;-33
2022/03/03 05:55:31;;;;;;;;;;;;;;;;;;5055712;28;19947;-35
2022/03/03 05:57:57;;;;;;;;;;;;;;;;;;5055640;28;20000;-32
2022/03/03 06:03:17;;;;;;;;;;;;;;;;;;5417540;22;19972;-24
2022/03/03 06:05:43;;;;;;;;;;;;;;;;;;5055459;28;20389;-33
2022/03/03 06:08:09;;;;;;;;;;;;;;;;;;5055476;28;19909;-25
2022/03/03 06:10:35;;;;;;;;;;;;;;;;;;5055693;28;20243;-25
2022/03/03 06:13:01;;;;;;;;;;;;;;;;;;5055279;28;19919;-25
2022/03/03 06:15:27;;;;;;;;;;;;;;;;;;5055317;28;19983;-26
2022/03/03 06:17:53;;;;;;;;;;;;;;;;;;5055399;28;19963;-26
2022/03/03 06:20:19;;;;;;;;;;;;;;;;;;5055255;28;19971;-25
2022/03/03 06:22:45;;;;;;;;;;;;;;;;;;5055233;28;20329;-26
2022/03/03 06:25:12;;;;;;;;;;;;;;;;;;5055397;28;20246;-25
2022/03/03 06:27:38;;;;;;;;;;;;;;;;;;5054228;28;19912;-25
2022/03/03 06:30:04;;;;;;;;;;;;;;;;;;5055195;28;19913;-25
2022/03/03 06:32:30;;;;;;;;;;;;;;;;;;5054906;28;19913;-26
2022/03/03 06:34:56;;;;;;;;;;;;;;;;;;5054994;28;20003;-25
2022/03/03 06:37:22;;;;;;;;;;;;;;;;;;5054152;28;19917;-25
2022/03/03 06:39:48;;;;;;;;;;;;;;;;;;5055561;28;20255;-26
2022/03/03 06:42:14;;;;;;;;;;;;;;;;;;5055428;28;19917;-25
2022/03/03 06:44:40;;;;;;;;;;;;;;;;;;5054800;28;19920;-26
2022/03/03 06:47:06;;;;;;;;;;;;;;;;;;5054799;28;20263;-25
2022/03/03 06:49:32;;;;;;;;;;;;;;;;;;5056065;28;20361;-25
2022/03/03 06:51:58;;;;;;;;;;;;;;;;;;5054753;28;19913;-26
2022/03/03 06:54:24;;;;;;;;;;;;;;;;;;5053865;28;19919;-25
2022/03/03 06:56:50;;;;;;;;;;;;;;;;;;5054677;28;19916;-25
2022/03/03 06:59:17;;;;;;;;;;;;;;;;;;5055022;28;19991;-26
2022/03/03 07:01:42;;;;;;;;;;;;;;;;;;5054620;28;19917;-26
2022/03/03 07:04:08;;;;;;;;;;;;;;;;;;5054345;28;19947;-26
2022/03/03 07:06:34;;;;;;;;;;;;;;;;;;5054577;28;20003;-25
2022/03/03 07:09:00;;;;;;;;;;;;;;;;;;5054702;28;19909;-25
2022/03/03 07:11:27;;;;;;;;;;;;;;;;;;5054712;28;19913;-26
2022/03/03 07:13:53;;;;;;;;;;;;;;;;;;5054674;28;20010;-25
2022/03/03 07:16:18;;;;;;;;;;;;;;;;;;5053684;28;19913;-26
2022/03/03 07:18:44;;;;;;;;;;;;;;;;;;5054657;28;19909;-26
2022/03/03 07:21:10;;;;;;;;;;;;;;;;;;5053808;28;20370;-25
2022/03/03 07:23:37;;;;;;;;;;;;;;;;;;5053549;28;19917;-26
2022/03/03 07:26:03;;;;;;;;;;;;;;;;;;5054639;28;19921;-26
2022/03/03 07:28:29;;;;;;;;;;;;;;;;;;5054851;28;20266;-25
2022/03/03 07:30:55;;;;;;;;;;;;;;;;;;5054617;28;19909;-26
2022/03/03 07:33:21;;;;;;;;;;;;;;;;;;5054550;28;19913;-26
2022/03/03 07:35:47;;;;;;;;;;;;;;;;;;5054558;28;19985;-26
2022/03/03 07:38:13;;;;;;;;;;;;;;;;;;5054541;28;19999;-25
2022/03/03 07:40:41;;;;;;;;;;;;;;;;;;5054453;28;20393;-26
2022/03/03 07:43:07;;;;;;;;;;;;;;;;;;5055034;28;19909;-25
2022/03/03 07:45:33;;;;;;;;;;;;;;;;;;5053258;28;20266;-26
2022/03/03 07:48:00;;;;;;;;;;;;;;;;;;5054263;28;19908;-26
2022/03/03 07:50:27;;;;;;;;;;;;;;;;;;5054604;28;19974;-25
2022/03/03 07:52:53;;;;;;;;;;;;;;;;;;5054523;28;20302;-26
2022/03/03 07:55:19;;;;;;;;;;;;;;;;;;5054288;28;19913;-26
2022/03/03 07:57:45;;;;;;;;;;;;;;;;;;5053403;28;20365;-26
2022/03/03 08:00:13;;;;;;;;;;;;;;;;;;5053323;28;20310;-26
2022/03/03 08:02:39;;;;;;;;;;;;;;;;;;5053939;28;19972;-27
2022/03/03 08:05:05;;;;;;;;;;;;;;;;;;5053744;28;19920;-27
2022/03/03 08:07:31;;;;;;;;;;;;;;;;;;5058005;28;19948;-26
2022/03/03 08:09:57;;;;;;;;;;;;;;;;;;5056749;28;19916;-26
2022/03/03 08:12:23;;;;;;;;;;;;;;;;;;5057540;28;19917;-26
2022/03/03 08:14:49;;;;;;;;;;;;;;;;;;5057557;28;20335;-27
2022/03/03 08:17:15;;;;;;;;;;;;;;;;;;5057665;28;19913;-26
2022/03/03 08:19:41;;;;;;;;;;;;;;;;;;5057579;28;20004;-26
2022/03/03 08:22:07;;;;;;;;;;;;;;;;;;5056553;28;19999;-26
2022/03/03 08:24:33;;;;;;;;;;;;;;;;;;5057766;28;19963;-26
2022/03/03 08:27:01;;;;;;;;;;;;;;;;;;5058011;28;19912;-26
2022/03/03 08:29:27;;;;;;;;;;;;;;;;;;5057672;28;20319;-26
2022/03/03 08:31:53;;;;;;;;;;;;;;;;;;5056316;28;19928;-26
2022/03/03 08:34:19;;;;;;;;;;;;;;;;;;5057246;28;19909;-26
2022/03/03 08:36:46;;;;;;;;;;;;;;;;;;5057687;28;19913;-26
2022/03/03 08:39:12;;;;;;;;;;;;;;;;;;5057483;28;19913;-26
2022/03/03 08:41:38;;;;;;;;;;;;;;;;;;5057479;28;19913;-27
2022/03/03 08:44:05;;;;;;;;;;;;;;;;;;5056014;28;19923;-26
2022/03/03 08:46:31;;;;;;;;;;;;;;;;;;5057316;28;20255;-26
2022/03/03 08:48:57;;;;;;;;;;;;;;;;;;5056917;28;19908;-26
2022/03/03 08:51:23;;;;;;;;;;;;;;;;;;5056891;28;19940;-26
2022/03/03 08:53:49;;;;;;;;;;;;;;;;;;5056817;28;19963;-26
2022/03/03 08:56:16;;;;;;;;;;;;;;;;;;5056828;28;19916;-26
2022/03/03 08:58:42;;;;;;;;;;;;;;;;;;5057138;28;19999;-27
2022/03/03 09:01:08;;;;;;;;;;;;;;;;;;5057036;28;19978;-26
2022/03/03 09:03:35;;;;;;;;;;;;;;;;;;5056432;28;19974;-26
2022/03/03 09:06:01;;;;;;;;;;;;;;;;;;5055664;28;19923;-26
2022/03/03 09:08:27;;;;;;;;;;;;;;;;;;5056504;28;19909;-26
2022/03/03 09:10:53;;;;;;;;;;;;;;;;;;5056486;28;19948;-26
2022/03/03 09:13:19;;;;;;;;;;;;;;;;;;5056703;28;20401;-26
2022/03/03 09:15:45;;;;;;;;;;;;;;;;;;5056299;28;19977;-24
2022/03/03 09:18:11;;;;;;;;;;;;;;;;;;5055546;28;20329;-26
2022/03/03 09:20:37;;;;;;;;;;;;;;;;;;5056559;28;19913;-25
2022/03/03 09:23:04;;;;;;;;;;;;;;;;;;5056565;28;19975;-26
2022/03/03 09:25:30;;;;;;;;;;;;;;;;;;5056269;28;19979;-26
2022/03/03 09:27:57;;;;;;;;;;;;;;;;;;5056160;28;19912;-26
2022/03/03 09:30:23;;;;;;;;;;;;;;;;;;5056172;28;19917;-25
2022/03/03 09:32:50;;;;;;;;;;;;;;;;;;5055021;28;19919;-24
2022/03/03 09:35:17;;;;;;;;;;;;;;;;;;5056020;28;20311;-27
2022/03/03 09:37:43;;;;;;;;;;;;;;;;;;5056354;28;19909;-25
2022/03/03 09:40:09;;;;;;;;;;;;;;;;;;5055065;28;19913;-25
2022/03/03 09:42:35;;;;;;;;;;;;;;;;;;5055993;28;19982;-25
2022/03/03 09:47:54;;;;;;;;;;;;;;;;;;5056132;28;19982;-25
2022/03/03 09:50:20;;;;;;;;;;;;;;;;;;5055970;28;19999;-25
2022/03/03 09:52:47;;;;;;;;;;;;;;;;;;5055847;28;19912;-25
2022/03/03 09:55:13;;;;;;;;;;;;;;;;;;5054872;28;20386;-25
2022/03/03 09:57:40;;;;;;;;;;;;;;;;;;5056087;28;20239;-25
2022/03/03 10:00:07;;;;;;;;;;;;;;;;;;5054722;28;19971;-25
2022/03/03 10:02:33;;;;;;;;;;;;;;;;;;5056084;28;20322;-25
2022/03/03 10:04:59;;;;;;;;;;;;;;;;;;5055877;28;19921;-25
2022/03/03 10:07:25;;;;;;;;;;;;;;;;;;5055566;28;19913;-25
2022/03/03 10:10:00;;;;;;;;;;;;;;;;;;5055537;28;19913;-24
2022/03/03 10:12:27;;;;;;;;;;;;;;;;;;5055773;28;20243;-25
2022/03/03 10:14:53;;;;;;;;;;;;;;;;;;5055487;28;19916;-25
2022/03/03 10:17:19;;;;;;;;;;;;;;;;;;5055359;28;19977;-25
2022/03/03 10:19:45;;;;;;;;;;;;;;;;;;5055301;28;19976;-25
2022/03/03 10:22:13;;;;;;;;;;;;;;;;;;5054209;28;19917;-25
2022/03/03 10:24:39;;;;;;;;;;;;;;;;;;5055141;28;19913;-25
2022/03/03 10:27:05;;;;;;;;;;;;;;;;;;5055098;28;19912;-25
2022/03/03 10:29:31;;;;;;;;;;;;;;;;;;5055006;28;19913;-25
2022/03/03 10:31:57;;;;;;;;;;;;;;;;;;5054841;28;19999;-25
2022/03/03 10:34:23;;;;;;;;;;;;;;;;;;5054093;28;19916;-25
2022/03/03 10:36:49;;;;;;;;;;;;;;;;;;5054953;28;19912;-26
2022/03/03 10:39:15;;;;;;;;;;;;;;;;;;5055006;28;20240;-26
2022/03/03 10:41:41;;;;;;;;;;;;;;;;;;5054884;28;19920;-26
2022/03/03 10:44:07;;;;;;;;;;;;;;;;;;5054850;28;20374;-26
2022/03/03 10:46:33;;;;;;;;;;;;;;;;;;5054917;28;19913;-25
2022/03/03 10:48:59;;;;;;;;;;;;;;;;;;5055218;28;20251;-26
2022/03/03 10:51:25;;;;;;;;;;;;;;;;;;5054821;28;20224;-26
2022/03/03 10:53:51;;;;;;;;;;;;;;;;;;5054897;28;19909;-25
2022/03/03 10:56:19;;;;;;;;;;;;;;;;;;5054714;28;19912;-26
2022/03/03 10:58:45;;;;;;;;;;;;;;;;;;5054758;28;19908;-25
2022/03/03 11:01:11;;;;;;;;;;;;;;;;;;5055034;28;19925;-25
2022/03/03 11:03:39;;;;;;;;;;;;;;;;;;5054538;28;19928;-26
2022/03/03 11:06:05;;;;;;;;;;;;;;;;;;5055039;28;19916;-25
2022/03/03 11:08:31;;;;;;;;;;;;;;;;;;5054949;28;20387;-25
2022/03/03 11:10:57;;;;;;;;;;;;;;;;;;5054698;28;19920;-25
2022/03/03 11:13:23;;;;;;;;;;;;;;;;;;5054552;28;19924;-25
2022/03/03 11:15:51;;;;;;;;;;;;;;;;;;5054586;28;19971;-31
2022/03/03 11:18:18;;;;;;;;;;;;;;;;;;5054688;28;19920;-25
2022/03/03 11:20:44;;;;;;;;;;;;;;;;;;5054679;28;20343;-25
2022/03/03 11:23:10;;;;;;;;;;;;;;;;;;5054620;28;19909;-26
2022/03/03 11:25:37;;;;;;;;;;;;;;;;;;5054461;28;20024;-25
2022/03/03 11:28:03;;;;;;;;;;;;;;;;;;5054512;28;19913;-25
2022/03/03 11:30:30;;;;;;;;;;;;;;;;;;5053657;28;19913;-25
2022/03/03 11:32:56;;;;;;;;;;;;;;;;;;5054343;28;20043;-25
2022/03/03 11:35:26;;;;;;;;;;;;;;;;;;5054658;28;19987;-25
2022/03/03 11:37:52;;;;;;;;;;;;;;;;;;5054445;28;19931;-25
2022/03/03 11:40:18;;;;;;;;;;;;;;;;;;5055159;28;20006;-26
2022/03/03 11:42:44;;;;;;;;;;;;;;;;;;5058186;28;19923;-26
2022/03/03 11:45:10;;;;;;;;;;;;;;;;;;5058113;28;19912;-26
2022/03/03 11:47:36;;;;;;;;;;;;;;;;;;5058834;28;19916;-26
2022/03/03 11:50:05;;;;;;;;;;;;;;;;;;5057204;28;19978;-26
2022/03/03 11:52:31;;;;;;;;;;;;;;;;;;5057898;28;19924;-25
2022/03/03 11:55:00;;;;;;;;;;;;;;;;;;5057949;28;20007;-25
2022/03/03 11:57:29;;;;;;;;;;;;;;;;;;5057984;28;19913;-25
2022/03/03 11:59:55;;;;;;;;;;;;;;;;;;5057927;28;19920;-25
2022/03/03 12:02:21;;;;;;;;;;;;;;;;;;5056642;28;21697;-26
2022/03/03 12:04:47;;;;;;;;;;;;;;;;;;5058303;28;19920;-26
2022/03/03 12:07:13;;;;;;;;;;;;;;;;;;5057849;28;19917;-25
2022/03/03 12:09:41;;;;;;;;;;;;;;;;;;5056895;28;19913;-25
2022/03/03 12:12:07;;;;;;;;;;;;;;;;;;5057650;28;19913;-25
2022/03/03 12:14:33;;;;;;;;;;;;;;;;;;5057667;28;19944;-25
2022/03/03 12:16:59;;;;;;;;;;;;;;;;;;5057854;28;20007;-25
2022/03/03 12:19:27;;;;;;;;;;;;;;;;;;5057564;28;19908;-26
2022/03/03 12:21:53;;;;;;;;;;;;;;;;;;5057395;28;19917;-25
2022/03/03 12:24:27;;;;;;;;;;;;;;;;;;5057504;28;19913;-25
2022/03/03 12:26:57;;;;;;;;;;;;;;;;;;5057547;28;19952;-25
2022/03/03 12:29:23;;;;;;;;;;;;;;;;;;5057792;28;19913;-25
2022/03/03 12:31:49;;;;;;;;;;;;;;;;;;5056260;28;19923;-25
2022/03/03 12:34:19;;;;;;;;;;;;;;;;;;5057350;28;19909;-26
2022/03/03 12:36:45;;;;;;;;;;;;;;;;;;5057849;28;19996;-25
2022/03/03 12:39:12;;;;;;;;;;;;;;;;;;5057987;28;19920;-25
2022/03/03 12:41:40;;;;;;;;;;;;;;;;;;5057728;28;19921;-26
2022/03/03 12:44:06;;;;;;;;;;;;;;;;;;5056997;28;20352;-25
2022/03/03 12:46:32;;;;;;;;;;;;;;;;;;5057656;28;19913;-25
2022/03/03 12:48:58;;;;;;;;;;;;;;;;;;5057043;28;19920;-25
2022/03/03 12:51:24;;;;;;;;;;;;;;;;;;5056729;28;19913;-25
2022/03/03 12:53:52;;;;;;;;;;;;;;;;;;5057569;28;20316;-26
2022/03/03 12:56:18;;;;;;;;;;;;;;;;;;5057067;28;19912;-30
2022/03/03 12:58:44;;;;;;;;;;;;;;;;;;5057017;28;20426;-26
2022/03/03 13:01:10;;;;;;;;;;;;;;;;;;5056823;28;20473;-26
2022/03/03 13:03:39;;;;;;;;;;;;;;;;;;5056335;28;19932;-26
2022/03/03 13:06:05;;;;;;;;;;;;;;;;;;5057193;28;19927;-25
2022/03/03 13:08:32;;;;;;;;;;;;;;;;;;5055728;28;20011;-26
2022/03/03 13:10:58;;;;;;;;;;;;;;;;;;5056699;28;19924;-26
2022/03/03 13:13:24;;;;;;;;;;;;;;;;;;5056447;28;19940;-26
2022/03/03 13:15:50;;;;;;;;;;;;;;;;;;5056782;28;19913;-26
2022/03/03 13:18:17;;;;;;;;;;;;;;;;;;5056386;28;19919;-26
2022/03/03 13:20:43;;;;;;;;;;;;;;;;;;5056275;28;19968;-26
2022/03/03 13:23:09;;;;;;;;;;;;;;;;;;5056450;28;19970;-26
2022/03/03 13:25:35;;;;;;;;;;;;;;;;;;5056226;28;20334;-26
2022/03/03 13:28:01;;;;;;;;;;;;;;;;;;5055193;28;19924;-26
2022/03/03 13:30:27;;;;;;;;;;;;;;;;;;5056193;28;19912;-26
2022/03/03 13:32:53;;;;;;;;;;;;;;;;;;5056541;28;20298;-26
2022/03/03 13:35:19;;;;;;;;;;;;;;;;;;5056018;28;19912;-26
2022/03/03 13:37:45;;;;;;;;;;;;;;;;;;5055130;28;19909;-26
2022/03/03 13:40:11;;;;;;;;;;;;;;;;;;5056167;28;20236;-26
2022/03/03 13:42:37;;;;;;;;;;;;;;;;;;5055775;28;19948;-26
2022/03/03 13:45:03;;;;;;;;;;;;;;;;;;5055682;28;20267;-26
2022/03/03 13:47:29;;;;;;;;;;;;;;;;;;5054628;28;19986;-26
2022/03/03 13:49:55;;;;;;;;;;;;;;;;;;5054638;28;19909;-26
2022/03/03 13:52:22;;;;;;;;;;;;;;;;;;5054450;28;20244;-26
2022/03/03 13:54:48;;;;;;;;;;;;;;;;;;5055723;28;19909;-26
2022/03/03 13:57:14;;;;;;;;;;;;;;;;;;5056313;28;19912;-26
2022/03/03 13:59:40;;;;;;;;;;;;;;;;;;5055569;28;20267;-26
2022/03/03 14:02:07;;;;;;;;;;;;;;;;;;5055160;28;19920;-26
2022/03/03 14:04:34;;;;;;;;;;;;;;;;;;5054952;28;20000;-26
2022/03/03 14:07:00;;;;;;;;;;;;;;;;;;5055733;28;19909;-26
2022/03/03 14:09:27;;;;;;;;;;;;;;;;;;5055166;28;19913;-26
2022/03/03 14:11:53;;;;;;;;;;;;;;;;;;5055375;28;20308;-26
2022/03/03 14:14:19;;;;;;;;;;;;;;;;;;5055152;28;20023;-27
2022/03/03 14:16:45;;;;;;;;;;;;;;;;;;5055234;28;20339;-26
2022/03/03 14:19:11;;;;;;;;;;;;;;;;;;5054322;28;20001;-26
2022/03/03 14:21:39;;;;;;;;;;;;;;;;;;5055305;28;20346;-26
2022/03/03 14:24:05;;;;;;;;;;;;;;;;;;5055071;28;19913;-26
2022/03/03 14:26:31;;;;;;;;;;;;;;;;;;5055339;28;19913;-26
2022/03/03 14:28:57;;;;;;;;;;;;;;;;;;5055178;28;19920;-26
2022/03/03 14:31:23;;;;;;;;;;;;;;;;;;5054889;28;19917;-26
2022/03/03 14:33:49;;;;;;;;;;;;;;;;;;5054806;28;19991;-26
2022/03/03 14:36:16;;;;;;;;;;;;;;;;;;5054828;28;20308;-26
2022/03/03 14:38:42;;;;;;;;;;;;;;;;;;5054769;28;20098;-26
2022/03/03 14:41:08;;;;;;;;;;;;;;;;;;5055270;28;19912;-25
2022/03/03 14:43:34;;;;;;;;;;;;;;;;;;5054863;28;19908;-26
2022/03/03 14:46:00;;;;;;;;;;;;;;;;;;5054597;28;19974;-26
2022/03/03 14:48:26;;;;;;;;;;;;;;;;;;5054768;28;19909;-26
2022/03/03 14:50:52;;;;;;;;;;;;;;;;;;5054673;28;19923;-26
2022/03/03 14:53:18;;;;;;;;;;;;;;;;;;5054573;28;20020;-26
2022/03/03 14:55:44;;;;;;;;;;;;;;;;;;5053824;28;19944;-26
2022/03/03 14:58:10;;;;;;;;;;;;;;;;;;5054979;28;20340;-26
2022/03/03 15:00:36;;;;;;;;;;;;;;;;;;5054356;28;19924;-26
2022/03/03 15:03:02;;;;;;;;;;;;;;;;;;5054344;28;19924;-26
2022/03/03 15:05:28;;;;;;;;;;;;;;;;;;5054546;28;20255;-26
2022/03/03 15:07:54;;;;;;;;;;;;;;;;;;5054487;28;19920;-26
2022/03/03 15:10:20;;;;;;;;;;;;;;;;;;5054813;28;19909;-26
2022/03/03 15:12:46;;;;;;;;;;;;;;;;;;5054324;28;19944;-26
2022/03/03 15:15:12;;;;;;;;;;;;;;;;;;5055127;28;19913;-26
2022/03/03 15:17:38;;;;;;;;;;;;;;;;;;5058416;28;19931;-26
2022/03/03 15:20:05;;;;;;;;;;;;;;;;;;5058421;28;20362;-26
2022/03/03 15:22:31;;;;;;;;;;;;;;;;;;5058447;28;19913;-26
2022/03/03 15:24:57;;;;;;;;;;;;;;;;;;5058407;28;19919;-26
2022/03/03 15:27:23;;;;;;;;;;;;;;;;;;5057439;28;19928;-26
2022/03/03 15:29:49;;;;;;;;;;;;;;;;;;5058687;28;20315;-26
2022/03/03 15:32:15;;;;;;;;;;;;;;;;;;5058331;28;19925;-26
2022/03/03 15:37:25;;;;;;;;;;;;;;;;;;5058278;28;20017;-27
2022/03/03 15:39:52;;;;;;;;;;;;;;;;;;5057131;28;20022;-26
2022/03/03 15:42:18;;;;;;;;;;;;;;;;;;5057046;28;19908;-26
2022/03/03 15:44:44;;;;;;;;;;;;;;;;;;5058525;28;19917;-26
2022/03/03 15:47:10;;;;;;;;;;;;;;;;;;5056977;28;20322;-26
2022/03/03 15:49:36;;;;;;;;;;;;;;;;;;5057997;28;19920;-25
2022/03/03 15:52:02;;;;;;;;;;;;;;;;;;5057822;28;19916;-26
2022/03/03 15:54:28;;;;;;;;;;;;;;;;;;5057951;28;19919;-26
2022/03/03 15:56:54;;;;;;;;;;;;;;;;;;5057922;28;19913;-27
2022/03/03 15:59:20;;;;;;;;;;;;;;;;;;5057981;28;19913;-26
2022/03/03 16:01:48;;;;;;;;;;;;;;;;;;5057637;28;19920;-27
2022/03/03 16:04:14;;;;;;;;;;;;;;;;;;5057395;28;19969;-27
2022/03/03 16:06:40;;;;;;;;;;;;;;;;;;5057652;28;19982;-26
2022/03/03 16:09:09;;;;;;;;;;;;;;;;;;5058153;28;19958;-26
2022/03/03 16:11:35;;;;;;;;;;;;;;;;;;5057601;28;19913;-26
2022/03/03 16:14:01;;;;;;;;;;;;;;;;;;5057471;28;19919;-26
2022/03/03 16:16:27;;;;;;;;;;;;;;;;;;5057640;28;20225;-26
2022/03/03 16:18:53;;;;;;;;;;;;;;;;;;5056435;28;19955;-27
2022/03/03 16:21:19;;;;;;;;;;;;;;;;;;5057231;28;19920;-27
2022/03/03 16:23:48;;;;;;;;;;;;;;;;;;5057164;28;19913;-26
2022/03/03 16:26:14;;;;;;;;;;;;;;;;;;5055745;28;19916;-24
2022/03/03 16:28:40;;;;;;;;;;;;;;;;;;5057153;28;19928;-25
2022/03/03 16:31:06;;;;;;;;;;;;;;;;;;5057371;28;20233;-25
2022/03/03 16:33:38;;;;;;;;;;;;;;;;;;5057089;28;19999;-25
2022/03/03 16:36:05;;;;;;;;;;;;;;;;;;5057242;28;19920;-25
2022/03/03 16:38:36;;;;;;;;;;;;;;;;;;5056741;28;20007;-25
2022/03/03 16:41:02;;;;;;;;;;;;;;;;;;5057414;28;19923;-25
2022/03/03 16:43:28;;;;;;;;;;;;;;;;;;5056834;28;20255;-25
2022/03/03 16:45:54;;;;;;;;;;;;;;;;;;5056847;28;19974;-25
2022/03/03 16:48:20;;;;;;;;;;;;;;;;;;5055914;28;20408;-25
2022/03/03 16:50:48;;;;;;;;;;;;;;;;;;5057229;28;19913;-25